sensor_id;sensor_type;location;lat;lon;timestamp;temperature;humidity
2012;DHT22;1009;51.436;6.972;2022-08-02T00:01:46;17.10;99.90
2012;DHT22;1009;51.436;6.972;2022-08-02T00:04:15;17.10;99.90
2012;DHT22;1009;51.436;6.972;2022-08-02T00:06:42;17.20;99.90
2012;DHT22;1009;51.436;6.972;2022-08-02T00:09:08;17.20;99.90
2012;DHT22;1009;51.436;6.972;2022-08-02T00:11:35;17.10;99.90
2012;DHT22;1009;51.436;6.972;2022-08-02T00:14:02;17.10;99.90
2012;DHT22;1009;51.436;6.972;2022-08-02T00:16:29;17.00;99.90
2012;DHT22;1009;51.436;6.972;2022-08-02T00:18:55;16.90;99.90
2012;DHT22;1009;51.436;6.972;2022-08-02T00:21:23;16.90;99.90
2012;DHT22;1009;51.436;6.972;2022-08-02T00:23:50;17.00;99.90
2012;DHT22;1009;51.436;6.972;2022-08-02T00:26:17;17.00;99.90
2012;DHT22;1009;51.436;6.972;2022-08-02T00:28:46;17.00;99.90
2012;DHT22;1009;51.436;6.972;2022-08-02T00:31:13;17.00;99.90
2012;DHT22;1009;51.436;6.972;2022-08-02T00:33:40;17.00;99.90
2012;DHT22;1009;51.436;6.972;2022-08-02T00:36:07;17.00;99.90
2012;DHT22;1009;51.436;6.972;2022-08-02T00:38:35;17.00;99.90
2012;DHT22;1009;51.436;6.972;2022-08-02T00:41:02;17.00;99.90
2012;DHT22;1009;51.436;6.972;2022-08-02T00:43:31;17.00;99.90
2012;DHT22;1009;51.436;6.972;2022-08-02T00:45:58;17.00;99.90
2012;DHT22;1009;51.436;6.972;2022-08-02T00:48:25;17.00;99.90
2012;DHT22;1009;51.436;6.972;2022-08-02T00:50:51;17.00;99.90
2012;DHT22;1009;51.436;6.972;2022-08-02T00:53:18;17.00;99.90
2012;DHT22;1009;51.436;6.972;2022-08-02T00:55:46;17.00;99.90
2012;DHT22;1009;51.436;6.972;2022-08-02T00:58:13;17.00;99.90
2012;DHT22;1009;51.436;6.972;2022-08-02T01:00:40;17.00;99.90
2012;DHT22;1009;51.436;6.972;2022-08-02T01:03:07;17.00;99.90
2012;DHT22;1009;51.436;6.972;2022-08-02T01:05:34;17.00;99.90
2012;DHT22;1009;51.436;6.972;2022-08-02T01:08:03;16.90;99.90
2012;DHT22;1009;51.436;6.972;2022-08-02T01:10:30;16.80;99.90
2012;DHT22;1009;51.436;6.972;2022-08-02T01:12:59;16.70;99.90
2012;DHT22;1009;51.436;6.972;2022-08-02T01:15:26;16.70;99.90
2012;DHT22;1009;51.436;6.972;2022-08-02T01:17:58;16.70;99.90
2012;DHT22;1009;51.436;6.972;2022-08-02T01:20:43;16.70;99.90
2012;DHT22;1009;51.436;6.972;2022-08-02T01:23:30;16.70;99.90
2012;DHT22;1009;51.436;6.972;2022-08-02T01:26:08;16.70;99.90
2012;DHT22;1009;51.436;6.972;2022-08-02T01:28:45;16.70;99.90
2012;DHT22;1009;51.436;6.972;2022-08-02T01:31:19;16.70;99.90
2012;DHT22;1009;51.436;6.972;2022-08-02T01:33:50;16.70;99.90
2012;DHT22;1009;51.436;6.972;2022-08-02T01:36:21;16.70;99.90
2012;DHT22;1009;51.436;6.972;2022-08-02T01:38:51;16.70;99.90
2012;DHT22;1009;51.436;6.972;2022-08-02T01:41:21;16.70;99.90
2012;DHT22;1009;51.436;6.972;2022-08-02T01:43:52;16.80;99.90
2012;DHT22;1009;51.436;6.972;2022-08-02T01:46:21;16.70;99.90
2012;DHT22;1009;51.436;6.972;2022-08-02T01:48:49;16.70;99.90
2012;DHT22;1009;51.436;6.972;2022-08-02T01:51:21;16.80;99.90
2012;DHT22;1009;51.436;6.972;2022-08-02T01:54:12;16.80;99.90
2012;DHT22;1009;51.436;6.972;2022-08-02T01:56:41;16.80;99.90
2012;DHT22;1009;51.436;6.972;2022-08-02T01:59:12;16.80;99.90
2012;DHT22;1009;51.436;6.972;2022-08-02T02:01:40;16.80;99.90
2012;DHT22;1009;51.436;6.972;2022-08-02T02:04:09;16.80;99.90
2012;DHT22;1009;51.436;6.972;2022-08-02T02:06:36;16.70;99.90
2012;DHT22;1009;51.436;6.972;2022-08-02T02:09:04;16.70;99.90
2012;DHT22;1009;51.436;6.972;2022-08-02T02:11:31;16.70;99.90
2012;DHT22;1009;51.436;6.972;2022-08-02T02:14:01;16.70;99.90
2012;DHT22;1009;51.436;6.972;2022-08-02T02:16:31;16.60;99.90
2012;DHT22;1009;51.436;6.972;2022-08-02T02:19:01;16.60;99.90
2012;DHT22;1009;51.436;6.972;2022-08-02T02:21:28;16.60;99.90
2012;DHT22;1009;51.436;6.972;2022-08-02T02:23:55;16.50;99.90
2012;DHT22;1009;51.436;6.972;2022-08-02T02:26:25;16.50;99.90
2012;DHT22;1009;51.436;6.972;2022-08-02T02:28:53;16.40;99.90
2012;DHT22;1009;51.436;6.972;2022-08-02T02:31:21;16.30;99.90
2012;DHT22;1009;51.436;6.972;2022-08-02T02:33:55;16.40;99.90
2012;DHT22;1009;51.436;6.972;2022-08-02T02:36:28;16.50;99.90
2012;DHT22;1009;51.436;6.972;2022-08-02T02:38:57;16.40;99.90
2012;DHT22;1009;51.436;6.972;2022-08-02T02:41:25;16.40;99.90
2012;DHT22;1009;51.436;6.972;2022-08-02T02:43:53;16.40;99.90
2012;DHT22;1009;51.436;6.972;2022-08-02T02:46:21;16.30;99.90
2012;DHT22;1009;51.436;6.972;2022-08-02T02:48:50;16.30;99.90
2012;DHT22;1009;51.436;6.972;2022-08-02T02:51:17;16.40;99.90
2012;DHT22;1009;51.436;6.972;2022-08-02T02:53:47;16.30;99.90
2012;DHT22;1009;51.436;6.972;2022-08-02T02:56:21;16.30;99.90
2012;DHT22;1009;51.436;6.972;2022-08-02T02:58:49;16.30;99.90
2012;DHT22;1009;51.436;6.972;2022-08-02T03:01:17;16.30;99.90
2012;DHT22;1009;51.436;6.972;2022-08-02T03:03:59;16.30;99.90
2012;DHT22;1009;51.436;6.972;2022-08-02T03:06:27;16.40;99.90
2012;DHT22;1009;51.436;6.972;2022-08-02T03:08:53;16.30;99.90
2012;DHT22;1009;51.436;6.972;2022-08-02T03:11:20;16.30;99.90
2012;DHT22;1009;51.436;6.972;2022-08-02T03:13:48;16.40;99.90
2012;DHT22;1009;51.436;6.972;2022-08-02T03:16:16;16.40;99.90
2012;DHT22;1009;51.436;6.972;2022-08-02T03:18:46;16.30;99.90
2012;DHT22;1009;51.436;6.972;2022-08-02T03:21:14;16.30;99.90
2012;DHT22;1009;51.436;6.972;2022-08-02T03:23:41;16.30;99.90
2012;DHT22;1009;51.436;6.972;2022-08-02T03:26:09;16.40;99.90
2012;DHT22;1009;51.436;6.972;2022-08-02T03:28:36;16.30;99.90
2012;DHT22;1009;51.436;6.972;2022-08-02T03:31:03;16.30;99.90
2012;DHT22;1009;51.436;6.972;2022-08-02T03:33:30;16.30;99.90
2012;DHT22;1009;51.436;6.972;2022-08-02T03:36:03;16.40;99.90
2012;DHT22;1009;51.436;6.972;2022-08-02T03:38:32;16.40;99.90
2012;DHT22;1009;51.436;6.972;2022-08-02T03:41:01;16.40;99.90
2012;DHT22;1009;51.436;6.972;2022-08-02T03:43:28;16.40;99.90
2012;DHT22;1009;51.436;6.972;2022-08-02T03:45:55;16.40;99.90
2012;DHT22;1009;51.436;6.972;2022-08-02T03:48:24;16.40;99.90
2012;DHT22;1009;51.436;6.972;2022-08-02T03:50:53;16.40;99.90
2012;DHT22;1009;51.436;6.972;2022-08-02T03:53:21;16.30;99.90
2012;DHT22;1009;51.436;6.972;2022-08-02T03:55:50;16.40;99.90
2012;DHT22;1009;51.436;6.972;2022-08-02T03:58:22;16.40;99.90
2012;DHT22;1009;51.436;6.972;2022-08-02T04:00:51;16.40;99.90
2012;DHT22;1009;51.436;6.972;2022-08-02T04:03:18;16.40;99.90
2012;DHT22;1009;51.436;6.972;2022-08-02T04:05:51;16.40;99.90
2012;DHT22;1009;51.436;6.972;2022-08-02T04:08:18;16.40;99.90
2012;DHT22;1009;51.436;6.972;2022-08-02T04:10:45;16.50;99.90
2012;DHT22;1009;51.436;6.972;2022-08-02T04:13:32;16.50;99.90
2012;DHT22;1009;51.436;6.972;2022-08-02T04:16:03;16.50;99.90
2012;DHT22;1009;51.436;6.972;2022-08-02T04:18:40;16.50;99.90
2012;DHT22;1009;51.436;6.972;2022-08-02T04:21:12;16.50;99.90
2012;DHT22;1009;51.436;6.972;2022-08-02T04:23:41;16.50;99.90
2012;DHT22;1009;51.436;6.972;2022-08-02T04:26:10;16.50;99.90
2012;DHT22;1009;51.436;6.972;2022-08-02T04:28:39;16.60;99.90
2012;DHT22;1009;51.436;6.972;2022-08-02T04:31:06;16.60;99.90
2012;DHT22;1009;51.436;6.972;2022-08-02T04:33:34;16.60;99.90
2012;DHT22;1009;51.436;6.972;2022-08-02T04:36:02;16.70;99.90
2012;DHT22;1009;51.436;6.972;2022-08-02T04:38:30;16.80;99.90
2012;DHT22;1009;51.436;6.972;2022-08-02T04:40:57;16.80;99.90
2012;DHT22;1009;51.436;6.972;2022-08-02T04:43:24;16.90;99.90
2012;DHT22;1009;51.436;6.972;2022-08-02T04:45:53;17.00;99.90
2012;DHT22;1009;51.436;6.972;2022-08-02T04:48:21;17.10;99.90
2012;DHT22;1009;51.436;6.972;2022-08-02T04:50:48;17.10;99.90
2012;DHT22;1009;51.436;6.972;2022-08-02T04:53:15;17.20;99.90
2012;DHT22;1009;51.436;6.972;2022-08-02T04:55:42;17.20;99.90
2012;DHT22;1009;51.436;6.972;2022-08-02T04:58:12;17.30;99.90
2012;DHT22;1009;51.436;6.972;2022-08-02T05:00:39;17.30;99.90
2012;DHT22;1009;51.436;6.972;2022-08-02T05:03:07;17.30;99.90
2012;DHT22;1009;51.436;6.972;2022-08-02T05:05:34;17.30;99.90
2012;DHT22;1009;51.436;6.972;2022-08-02T05:08:01;17.40;99.90
2012;DHT22;1009;51.436;6.972;2022-08-02T05:10:28;17.50;99.90
2012;DHT22;1009;51.436;6.972;2022-08-02T05:12:54;17.50;99.90
2012;DHT22;1009;51.436;6.972;2022-08-02T05:15:21;17.50;99.90
2012;DHT22;1009;51.436;6.972;2022-08-02T05:17:48;17.60;99.90
2012;DHT22;1009;51.436;6.972;2022-08-02T05:20:17;17.70;99.90
2012;DHT22;1009;51.436;6.972;2022-08-02T05:22:44;17.70;99.90
2012;DHT22;1009;51.436;6.972;2022-08-02T05:25:14;17.80;99.90
2012;DHT22;1009;51.436;6.972;2022-08-02T05:27:47;17.80;99.90
2012;DHT22;1009;51.436;6.972;2022-08-02T05:30:13;17.90;99.90
2012;DHT22;1009;51.436;6.972;2022-08-02T05:32:45;18.00;99.90
2012;DHT22;1009;51.436;6.972;2022-08-02T05:35:11;18.10;99.90
2012;DHT22;1009;51.436;6.972;2022-08-02T05:37:40;18.20;99.90
2012;DHT22;1009;51.436;6.972;2022-08-02T05:40:07;18.30;99.90
2012;DHT22;1009;51.436;6.972;2022-08-02T05:42:34;18.30;99.90
2012;DHT22;1009;51.436;6.972;2022-08-02T05:45:02;18.40;99.90
2012;DHT22;1009;51.436;6.972;2022-08-02T05:47:28;18.50;99.90
2012;DHT22;1009;51.436;6.972;2022-08-02T05:49:55;18.60;99.90
2012;DHT22;1009;51.436;6.972;2022-08-02T05:52:25;18.70;99.90
2012;DHT22;1009;51.436;6.972;2022-08-02T05:55:04;18.70;99.90
2012;DHT22;1009;51.436;6.972;2022-08-02T05:57:36;18.80;99.90
2012;DHT22;1009;51.436;6.972;2022-08-02T06:00:08;18.90;99.90
2012;DHT22;1009;51.436;6.972;2022-08-02T06:02:53;19.00;99.90
2012;DHT22;1009;51.436;6.972;2022-08-02T06:05:26;19.10;99.90
2012;DHT22;1009;51.436;6.972;2022-08-02T06:07:54;19.10;99.90
2012;DHT22;1009;51.436;6.972;2022-08-02T06:10:23;19.20;99.90
2012;DHT22;1009;51.436;6.972;2022-08-02T06:13:00;19.30;99.90
2012;DHT22;1009;51.436;6.972;2022-08-02T06:15:27;19.40;99.90
2012;DHT22;1009;51.436;6.972;2022-08-02T06:17:55;19.50;99.90
2012;DHT22;1009;51.436;6.972;2022-08-02T06:20:23;19.60;99.90
2012;DHT22;1009;51.436;6.972;2022-08-02T06:22:51;19.60;99.90
2012;DHT22;1009;51.436;6.972;2022-08-02T06:25:18;19.80;99.90
2012;DHT22;1009;51.436;6.972;2022-08-02T06:27:48;20.00;99.90
2012;DHT22;1009;51.436;6.972;2022-08-02T06:30:16;20.10;99.90
2012;DHT22;1009;51.436;6.972;2022-08-02T06:32:46;20.20;99.90
2012;DHT22;1009;51.436;6.972;2022-08-02T06:35:16;20.30;99.90
2012;DHT22;1009;51.436;6.972;2022-08-02T06:37:47;20.50;99.90
2012;DHT22;1009;51.436;6.972;2022-08-02T06:40:22;20.70;99.90
2012;DHT22;1009;51.436;6.972;2022-08-02T06:43:00;20.70;99.90
2012;DHT22;1009;51.436;6.972;2022-08-02T06:45:29;20.60;99.90
2012;DHT22;1009;51.436;6.972;2022-08-02T06:47:55;20.60;99.90
2012;DHT22;1009;51.436;6.972;2022-08-02T06:50:22;20.60;99.90
2012;DHT22;1009;51.436;6.972;2022-08-02T06:52:55;20.70;99.90
2012;DHT22;1009;51.436;6.972;2022-08-02T06:55:22;20.80;99.90
2012;DHT22;1009;51.436;6.972;2022-08-02T06:57:48;20.90;99.90
2012;DHT22;1009;51.436;6.972;2022-08-02T07:00:17;20.90;99.90
2012;DHT22;1009;51.436;6.972;2022-08-02T07:02:44;20.90;99.90
2012;DHT22;1009;51.436;6.972;2022-08-02T07:05:10;21.00;99.90
2012;DHT22;1009;51.436;6.972;2022-08-02T07:07:37;21.10;99.90
2012;DHT22;1009;51.436;6.972;2022-08-02T07:10:05;21.30;99.90
2012;DHT22;1009;51.436;6.972;2022-08-02T07:12:33;21.30;99.90
2012;DHT22;1009;51.436;6.972;2022-08-02T07:15:01;21.40;99.90
2012;DHT22;1009;51.436;6.972;2022-08-02T07:17:30;21.50;99.90
2012;DHT22;1009;51.436;6.972;2022-08-02T07:19:58;21.60;99.90
2012;DHT22;1009;51.436;6.972;2022-08-02T07:22:35;21.60;99.90
2012;DHT22;1009;51.436;6.972;2022-08-02T07:25:03;21.70;99.90
2012;DHT22;1009;51.436;6.972;2022-08-02T07:27:30;21.80;99.90
2012;DHT22;1009;51.436;6.972;2022-08-02T07:29:57;21.80;99.90
2012;DHT22;1009;51.436;6.972;2022-08-02T07:32:26;21.90;99.90
2012;DHT22;1009;51.436;6.972;2022-08-02T07:34:55;21.90;99.90
2012;DHT22;1009;51.436;6.972;2022-08-02T07:37:24;22.10;99.90
2012;DHT22;1009;51.436;6.972;2022-08-02T07:39:51;22.20;99.90
2012;DHT22;1009;51.436;6.972;2022-08-02T07:42:18;22.40;99.90
2012;DHT22;1009;51.436;6.972;2022-08-02T07:44:45;22.40;99.90
2012;DHT22;1009;51.436;6.972;2022-08-02T07:47:12;22.50;99.90
2012;DHT22;1009;51.436;6.972;2022-08-02T07:49:38;22.60;99.90
2012;DHT22;1009;51.436;6.972;2022-08-02T07:52:10;22.80;99.90
2012;DHT22;1009;51.436;6.972;2022-08-02T07:54:36;22.90;99.90
2012;DHT22;1009;51.436;6.972;2022-08-02T07:57:03;23.10;99.90
2012;DHT22;1009;51.436;6.972;2022-08-02T07:59:30;23.20;99.90
2012;DHT22;1009;51.436;6.972;2022-08-02T08:01:57;23.30;99.90
2012;DHT22;1009;51.436;6.972;2022-08-02T08:04:23;23.30;99.90
2012;DHT22;1009;51.436;6.972;2022-08-02T08:06:51;23.50;99.90
2012;DHT22;1009;51.436;6.972;2022-08-02T08:09:19;23.70;99.90
2012;DHT22;1009;51.436;6.972;2022-08-02T08:11:46;23.70;99.90
2012;DHT22;1009;51.436;6.972;2022-08-02T08:14:14;23.80;99.90
2012;DHT22;1009;51.436;6.972;2022-08-02T08:16:41;23.70;99.90
2012;DHT22;1009;51.436;6.972;2022-08-02T08:19:08;23.70;99.90
2012;DHT22;1009;51.436;6.972;2022-08-02T08:21:35;23.90;99.90
2012;DHT22;1009;51.436;6.972;2022-08-02T08:24:01;23.90;99.90
2012;DHT22;1009;51.436;6.972;2022-08-02T08:26:30;24.10;99.90
2012;DHT22;1009;51.436;6.972;2022-08-02T08:28:57;24.10;99.90
2012;DHT22;1009;51.436;6.972;2022-08-02T08:31:25;24.00;99.90
2012;DHT22;1009;51.436;6.972;2022-08-02T08:33:51;24.10;99.90
2012;DHT22;1009;51.436;6.972;2022-08-02T08:36:18;24.20;99.90
2012;DHT22;1009;51.436;6.972;2022-08-02T08:38:45;24.30;99.90
2012;DHT22;1009;51.436;6.972;2022-08-02T08:41:15;24.50;99.90
2012;DHT22;1009;51.436;6.972;2022-08-02T08:43:43;24.60;99.90
2012;DHT22;1009;51.436;6.972;2022-08-02T08:46:12;24.70;99.90
2012;DHT22;1009;51.436;6.972;2022-08-02T08:48:45;24.90;99.90
2012;DHT22;1009;51.436;6.972;2022-08-02T08:51:20;24.90;99.90
2012;DHT22;1009;51.436;6.972;2022-08-02T08:53:48;24.70;99.90
2012;DHT22;1009;51.436;6.972;2022-08-02T08:56:15;24.80;99.90
2012;DHT22;1009;51.436;6.972;2022-08-02T08:58:45;24.80;99.90
2012;DHT22;1009;51.436;6.972;2022-08-02T09:01:12;25.00;99.90
2012;DHT22;1009;51.436;6.972;2022-08-02T09:03:39;25.10;99.90
2012;DHT22;1009;51.436;6.972;2022-08-02T09:06:06;25.20;99.90
2012;DHT22;1009;51.436;6.972;2022-08-02T09:08:33;25.20;99.90
2012;DHT22;1009;51.436;6.972;2022-08-02T09:11:00;25.30;99.90
2012;DHT22;1009;51.436;6.972;2022-08-02T09:13:27;25.30;99.90
2012;DHT22;1009;51.436;6.972;2022-08-02T09:15:57;25.50;99.90
2012;DHT22;1009;51.436;6.972;2022-08-02T09:18:30;25.70;99.90
2012;DHT22;1009;51.436;6.972;2022-08-02T09:21:01;25.80;99.90
2012;DHT22;1009;51.436;6.972;2022-08-02T09:23:33;25.90;99.90
2012;DHT22;1009;51.436;6.972;2022-08-02T09:26:02;26.00;99.90
2012;DHT22;1009;51.436;6.972;2022-08-02T09:28:31;26.00;99.90
2012;DHT22;1009;51.436;6.972;2022-08-02T09:31:06;25.90;99.90
2012;DHT22;1009;51.436;6.972;2022-08-02T09:33:35;26.00;99.90
2012;DHT22;1009;51.436;6.972;2022-08-02T09:36:06;26.10;99.90
2012;DHT22;1009;51.436;6.972;2022-08-02T09:38:34;26.00;99.90
2012;DHT22;1009;51.436;6.972;2022-08-02T09:41:02;26.10;99.90
2012;DHT22;1009;51.436;6.972;2022-08-02T09:43:37;26.20;99.90
2012;DHT22;1009;51.436;6.972;2022-08-02T09:46:13;26.20;99.90
2012;DHT22;1009;51.436;6.972;2022-08-02T09:48:50;26.10;99.90
2012;DHT22;1009;51.436;6.972;2022-08-02T09:51:22;26.20;99.90
2012;DHT22;1009;51.436;6.972;2022-08-02T09:53:51;26.20;99.90
2012;DHT22;1009;51.436;6.972;2022-08-02T09:56:19;26.30;99.90
2012;DHT22;1009;51.436;6.972;2022-08-02T09:58:46;26.40;99.90
2012;DHT22;1009;51.436;6.972;2022-08-02T10:01:15;26.50;99.90
2012;DHT22;1009;51.436;6.972;2022-08-02T10:03:54;26.40;99.90
2012;DHT22;1009;51.436;6.972;2022-08-02T10:06:21;26.20;99.90
2012;DHT22;1009;51.436;6.972;2022-08-02T10:08:48;26.10;99.90
2012;DHT22;1009;51.436;6.972;2022-08-02T10:11:16;26.00;99.90
2012;DHT22;1009;51.436;6.972;2022-08-02T10:13:43;26.30;99.90
2012;DHT22;1009;51.436;6.972;2022-08-02T10:16:11;26.50;99.90
2012;DHT22;1009;51.436;6.972;2022-08-02T10:18:40;26.50;99.90
2012;DHT22;1009;51.436;6.972;2022-08-02T10:21:12;26.50;99.90
2012;DHT22;1009;51.436;6.972;2022-08-02T10:23:42;26.40;99.90
2012;DHT22;1009;51.436;6.972;2022-08-02T10:26:13;26.20;99.90
2012;DHT22;1009;51.436;6.972;2022-08-02T10:28:41;26.30;99.90
2012;DHT22;1009;51.436;6.972;2022-08-02T10:31:11;26.60;99.90
2012;DHT22;1009;51.436;6.972;2022-08-02T10:33:41;26.80;99.90
2012;DHT22;1009;51.436;6.972;2022-08-02T10:36:10;26.90;99.90
2012;DHT22;1009;51.436;6.972;2022-08-02T10:38:39;26.80;99.90
2012;DHT22;1009;51.436;6.972;2022-08-02T10:41:06;26.80;99.90
2012;DHT22;1009;51.436;6.972;2022-08-02T10:43:40;27.20;99.90
2012;DHT22;1009;51.436;6.972;2022-08-02T10:46:31;27.50;99.90
2012;DHT22;1009;51.436;6.972;2022-08-02T10:49:09;27.50;99.90
2012;DHT22;1009;51.436;6.972;2022-08-02T10:52:05;27.10;99.90
2012;DHT22;1009;51.436;6.972;2022-08-02T10:54:35;26.60;99.90
2012;DHT22;1009;51.436;6.972;2022-08-02T10:57:13;26.80;99.90
2012;DHT22;1009;51.436;6.972;2022-08-02T10:59:40;27.10;99.90
2012;DHT22;1009;51.436;6.972;2022-08-02T11:02:08;27.20;99.90
2012;DHT22;1009;51.436;6.972;2022-08-02T11:05:07;27.30;99.90
2012;DHT22;1009;51.436;6.972;2022-08-02T11:07:36;27.40;99.90
2012;DHT22;1009;51.436;6.972;2022-08-02T11:10:28;27.70;99.90
2012;DHT22;1009;51.436;6.972;2022-08-02T11:13:00;27.90;99.90
2012;DHT22;1009;51.436;6.972;2022-08-02T11:15:27;28.10;99.90
2012;DHT22;1009;51.436;6.972;2022-08-02T11:17:56;28.30;99.90
2012;DHT22;1009;51.436;6.972;2022-08-02T11:20:25;28.40;99.90
2012;DHT22;1009;51.436;6.972;2022-08-02T11:22:53;28.60;99.90
2012;DHT22;1009;51.436;6.972;2022-08-02T11:25:30;28.50;99.90
2012;DHT22;1009;51.436;6.972;2022-08-02T11:27:59;28.20;99.90
2012;DHT22;1009;51.436;6.972;2022-08-02T11:30:32;28.00;99.90
2012;DHT22;1009;51.436;6.972;2022-08-02T11:33:00;28.00;99.90
2012;DHT22;1009;51.436;6.972;2022-08-02T11:35:33;28.00;99.90
2012;DHT22;1009;51.436;6.972;2022-08-02T11:38:14;27.80;99.90
2012;DHT22;1009;51.436;6.972;2022-08-02T11:40:41;27.40;99.90
2012;DHT22;1009;51.436;6.972;2022-08-02T11:43:19;27.10;99.90
2012;DHT22;1009;51.436;6.972;2022-08-02T11:45:48;27.10;99.90
2012;DHT22;1009;51.436;6.972;2022-08-02T11:48:29;27.00;99.90
2012;DHT22;1009;51.436;6.972;2022-08-02T11:51:10;27.20;99.90
2012;DHT22;1009;51.436;6.972;2022-08-02T11:53:46;27.20;99.90
2012;DHT22;1009;51.436;6.972;2022-08-02T11:56:14;27.20;99.90
2012;DHT22;1009;51.436;6.972;2022-08-02T11:58:41;27.40;99.90
2012;DHT22;1009;51.436;6.972;2022-08-02T12:01:25;27.50;99.90
2012;DHT22;1009;51.436;6.972;2022-08-02T12:03:52;27.40;99.90
2012;DHT22;1009;51.436;6.972;2022-08-02T12:06:24;27.50;99.90
2012;DHT22;1009;51.436;6.972;2022-08-02T12:08:58;27.50;99.90
2012;DHT22;1009;51.436;6.972;2022-08-02T12:11:25;27.40;99.90
2012;DHT22;1009;51.436;6.972;2022-08-02T12:13:51;27.40;99.90
2012;DHT22;1009;51.436;6.972;2022-08-02T12:16:18;27.30;99.90
2012;DHT22;1009;51.436;6.972;2022-08-02T12:19:02;27.20;99.90
2012;DHT22;1009;51.436;6.972;2022-08-02T12:21:46;27.10;99.90
2012;DHT22;1009;51.436;6.972;2022-08-02T12:24:12;26.90;99.90
2012;DHT22;1009;51.436;6.972;2022-08-02T12:26:44;27.00;99.90
2012;DHT22;1009;51.436;6.972;2022-08-02T12:29:11;27.10;99.90
2012;DHT22;1009;51.436;6.972;2022-08-02T12:31:43;27.40;99.90
2012;DHT22;1009;51.436;6.972;2022-08-02T12:34:13;27.60;99.90
2012;DHT22;1009;51.436;6.972;2022-08-02T12:36:43;27.80;99.90
2012;DHT22;1009;51.436;6.972;2022-08-02T12:39:33;28.10;99.90
2012;DHT22;1009;51.436;6.972;2022-08-02T12:42:00;28.50;99.90
2012;DHT22;1009;51.436;6.972;2022-08-02T12:44:27;28.60;99.90
2012;DHT22;1009;51.436;6.972;2022-08-02T12:46:58;28.50;99.90
2012;DHT22;1009;51.436;6.972;2022-08-02T12:49:29;28.40;99.90
2012;DHT22;1009;51.436;6.972;2022-08-02T12:51:56;28.60;99.90
2012;DHT22;1009;51.436;6.972;2022-08-02T12:54:25;28.60;99.90
2012;DHT22;1009;51.436;6.972;2022-08-02T12:56:53;28.70;99.90
2012;DHT22;1009;51.436;6.972;2022-08-02T12:59:33;28.70;99.90
2012;DHT22;1009;51.436;6.972;2022-08-02T13:02:01;28.80;99.90
2012;DHT22;1009;51.436;6.972;2022-08-02T13:04:28;28.70;99.90
2012;DHT22;1009;51.436;6.972;2022-08-02T13:06:55;28.60;99.90
2012;DHT22;1009;51.436;6.972;2022-08-02T13:09:27;28.50;99.90
2012;DHT22;1009;51.436;6.972;2022-08-02T13:11:53;28.50;99.90
2012;DHT22;1009;51.436;6.972;2022-08-02T13:14:20;28.50;99.50
2012;DHT22;1009;51.436;6.972;2022-08-02T13:16:47;28.40;99.60
2012;DHT22;1009;51.436;6.972;2022-08-02T13:19:14;28.40;99.90
2012;DHT22;1009;51.436;6.972;2022-08-02T13:21:44;28.50;99.90
2012;DHT22;1009;51.436;6.972;2022-08-02T13:24:13;28.50;99.90
2012;DHT22;1009;51.436;6.972;2022-08-02T13:26:42;28.60;99.90
2012;DHT22;1009;51.436;6.972;2022-08-02T13:29:09;28.60;99.90
2012;DHT22;1009;51.436;6.972;2022-08-02T13:31:36;28.70;99.90
2012;DHT22;1009;51.436;6.972;2022-08-02T13:34:07;28.90;99.90
2012;DHT22;1009;51.436;6.972;2022-08-02T13:36:35;29.10;99.90
2012;DHT22;1009;51.436;6.972;2022-08-02T13:39:03;29.20;99.90
2012;DHT22;1009;51.436;6.972;2022-08-02T13:41:30;28.90;99.90
2012;DHT22;1009;51.436;6.972;2022-08-02T13:43:58;28.90;99.90
2012;DHT22;1009;51.436;6.972;2022-08-02T13:46:25;29.00;99.90
2012;DHT22;1009;51.436;6.972;2022-08-02T13:48:52;29.00;99.10
2012;DHT22;1009;51.436;6.972;2022-08-02T13:51:19;29.20;98.90
2012;DHT22;1009;51.436;6.972;2022-08-02T13:53:45;29.20;98.80
2012;DHT22;1009;51.436;6.972;2022-08-02T13:56:12;29.30;97.10
2012;DHT22;1009;51.436;6.972;2022-08-02T13:58:40;29.50;98.90
2012;DHT22;1009;51.436;6.972;2022-08-02T14:01:08;29.70;99.90
2012;DHT22;1009;51.436;6.972;2022-08-02T14:03:38;29.70;99.90
2012;DHT22;1009;51.436;6.972;2022-08-02T14:06:04;29.60;99.60
2012;DHT22;1009;51.436;6.972;2022-08-02T14:08:33;29.60;97.60
2012;DHT22;1009;51.436;6.972;2022-08-02T14:11:00;29.60;99.40
2012;DHT22;1009;51.436;6.972;2022-08-02T14:13:27;29.60;99.50
2012;DHT22;1009;51.436;6.972;2022-08-02T14:15:53;29.40;95.50
2012;DHT22;1009;51.436;6.972;2022-08-02T14:18:22;29.50;95.30
2012;DHT22;1009;51.436;6.972;2022-08-02T14:20:48;29.50;96.80
2012;DHT22;1009;51.436;6.972;2022-08-02T14:23:15;29.60;96.70
2012;DHT22;1009;51.436;6.972;2022-08-02T14:25:45;29.50;95.60
2012;DHT22;1009;51.436;6.972;2022-08-02T14:28:12;29.40;98.20
2012;DHT22;1009;51.436;6.972;2022-08-02T14:30:39;29.50;96.10
2012;DHT22;1009;51.436;6.972;2022-08-02T14:33:06;29.60;95.60
2012;DHT22;1009;51.436;6.972;2022-08-02T14:35:35;29.80;94.90
2012;DHT22;1009;51.436;6.972;2022-08-02T14:38:02;29.90;94.40
2012;DHT22;1009;51.436;6.972;2022-08-02T14:40:28;29.70;93.10
2012;DHT22;1009;51.436;6.972;2022-08-02T14:42:55;29.70;94.40
2012;DHT22;1009;51.436;6.972;2022-08-02T14:45:22;29.70;93.00
2012;DHT22;1009;51.436;6.972;2022-08-02T14:47:50;29.60;93.90
2012;DHT22;1009;51.436;6.972;2022-08-02T14:50:17;29.50;95.30
2012;DHT22;1009;51.436;6.972;2022-08-02T14:52:47;29.40;93.60
2012;DHT22;1009;51.436;6.972;2022-08-02T14:55:15;29.40;94.40
2012;DHT22;1009;51.436;6.972;2022-08-02T14:57:42;29.50;96.60
2012;DHT22;1009;51.436;6.972;2022-08-02T15:00:10;29.30;95.50
2012;DHT22;1009;51.436;6.972;2022-08-02T15:02:37;29.30;94.90
2012;DHT22;1009;51.436;6.972;2022-08-02T15:05:04;29.40;94.20
2012;DHT22;1009;51.436;6.972;2022-08-02T15:07:31;29.40;93.90
2012;DHT22;1009;51.436;6.972;2022-08-02T15:09:59;29.30;93.80
2012;DHT22;1009;51.436;6.972;2022-08-02T15:12:25;29.20;94.80
2012;DHT22;1009;51.436;6.972;2022-08-02T15:14:52;29.40;94.40
2012;DHT22;1009;51.436;6.972;2022-08-02T15:17:19;29.30;93.70
2012;DHT22;1009;51.436;6.972;2022-08-02T15:19:46;29.20;95.20
2012;DHT22;1009;51.436;6.972;2022-08-02T15:22:15;29.10;95.30
2012;DHT22;1009;51.436;6.972;2022-08-02T15:24:42;29.10;94.70
2012;DHT22;1009;51.436;6.972;2022-08-02T15:27:11;29.00;95.10
2012;DHT22;1009;51.436;6.972;2022-08-02T15:29:38;28.90;93.30
2012;DHT22;1009;51.436;6.972;2022-08-02T15:32:05;28.80;92.70
2012;DHT22;1009;51.436;6.972;2022-08-02T15:34:32;28.70;93.60
2012;DHT22;1009;51.436;6.972;2022-08-02T15:36:59;28.60;94.10
2012;DHT22;1009;51.436;6.972;2022-08-02T15:39:26;28.60;94.90
2012;DHT22;1009;51.436;6.972;2022-08-02T15:41:52;28.60;93.40
2012;DHT22;1009;51.436;6.972;2022-08-02T15:44:21;28.70;95.50
2012;DHT22;1009;51.436;6.972;2022-08-02T15:46:47;28.80;94.10
2012;DHT22;1009;51.436;6.972;2022-08-02T15:49:16;28.80;96.90
2012;DHT22;1009;51.436;6.972;2022-08-02T15:51:44;28.60;94.40
2012;DHT22;1009;51.436;6.972;2022-08-02T15:54:11;28.50;93.70
2012;DHT22;1009;51.436;6.972;2022-08-02T15:56:38;28.50;93.50
2012;DHT22;1009;51.436;6.972;2022-08-02T15:59:05;28.50;90.80
2012;DHT22;1009;51.436;6.972;2022-08-02T16:01:33;28.60;93.30
2012;DHT22;1009;51.436;6.972;2022-08-02T16:04:00;28.60;95.20
2012;DHT22;1009;51.436;6.972;2022-08-02T16:06:26;28.60;94.10
2012;DHT22;1009;51.436;6.972;2022-08-02T16:08:53;28.60;93.70
2012;DHT22;1009;51.436;6.972;2022-08-02T16:11:20;28.50;94.00
2012;DHT22;1009;51.436;6.972;2022-08-02T16:13:47;28.60;95.00
2012;DHT22;1009;51.436;6.972;2022-08-02T16:16:18;28.60;93.70